createdAt,value
2022-08-22T00:02:39.471Z,7.07
2022-08-22T00:02:43.289Z,8.25
2022-08-22T00:02:57.678Z,7.40
2022-08-22T00:03:02.384Z,4.50
2022-08-22T00:05:42.971Z,6.60
2022-08-22T00:08:48.115Z,6.82
2022-08-22T00:11:49.969Z,6.47
2022-08-22T00:14:48.062Z,7.18
2022-08-22T00:17:51.017Z,6.70
2022-08-22T00:20:46.945Z,6.82
2022-08-22T00:23:46.782Z,7.50
2022-08-22T00:26:45.817Z,8.90
2022-08-22T00:29:44.424Z,7.03
2022-08-22T00:32:42.186Z,5.80
2022-08-22T00:35:42.929Z,6.53
2022-08-22T00:38:41.869Z,6.82
2022-08-22T00:42:00.746Z,7.95
2022-08-22T00:45:39.335Z,7.00
2022-08-22T00:49:04.096Z,6.00
2022-08-22T00:52:22.905Z,6.28
2022-08-22T00:55:41.733Z,6.93
2022-08-22T00:58:59.662Z,9.85
2022-08-22T01:02:32.020Z,8.32
2022-08-22T01:05:55.037Z,6.05
2022-08-22T01:09:11.333Z,6.82
2022-08-22T01:12:27.979Z,6.53
2022-08-22T01:15:25.117Z,8.50
2022-08-22T01:18:56.771Z,6.25
2022-08-22T01:22:22.414Z,7.68
2022-08-22T01:26:08.784Z,7.78
2022-08-22T01:29:45.905Z,7.13
2022-08-22T01:33:24.669Z,7.78
2022-08-22T01:36:47.366Z,5.82
2022-08-22T01:40:31.112Z,7.77
2022-08-22T01:43:58.746Z,6.28
2022-08-22T01:47:02.450Z,7.30
2022-08-22T01:50:01.414Z,7.35
2022-08-22T01:53:03.480Z,6.38
2022-08-22T01:56:05.452Z,5.90
2022-08-22T01:59:01.701Z,6.20
2022-08-22T02:02:02.660Z,7.80
2022-08-22T02:05:07.279Z,9.07
2022-08-22T02:08:07.045Z,7.72
2022-08-22T02:11:06.386Z,8.70
2022-08-22T02:14:04.627Z,8.30
2022-08-22T02:17:09.137Z,6.55
2022-08-22T02:20:11.453Z,6.97
2022-08-22T02:23:18.694Z,7.87
2022-08-22T02:26:17.708Z,6.22
2022-08-22T02:29:14.940Z,6.18
2022-08-22T02:32:15.643Z,7.15
2022-08-22T02:35:19.250Z,6.97
2022-08-22T02:38:26.385Z,6.22
2022-08-22T02:41:26.151Z,7.22
2022-08-22T02:44:25.855Z,8.75
2022-08-22T02:47:28.278Z,7.03
2022-08-22T02:50:31.021Z,7.40
2022-08-22T02:53:33.564Z,10.27
2022-08-22T02:56:32.393Z,6.25
2022-08-22T02:59:37.373Z,7.25
2022-08-22T03:02:39.927Z,6.40
2022-08-22T03:05:46.971Z,7.55
2022-08-22T03:08:47.587Z,6.25
2022-08-22T03:11:46.985Z,7.55
2022-08-22T03:14:45.743Z,7.85
2022-08-22T03:17:46.647Z,6.43
2022-08-22T03:20:50.417Z,9.32
2022-08-22T03:23:47.623Z,9.05
2022-08-22T03:26:50.398Z,6.80
2022-08-22T03:29:48.082Z,8.15
2022-08-22T03:32:59.110Z,6.00
2022-08-22T03:36:11.340Z,5.93
2022-08-22T03:39:18.582Z,6.80
2022-08-22T03:43:00.985Z,6.93
2022-08-22T03:46:46.205Z,6.90
2022-08-22T03:50:29.169Z,7.63
2022-08-22T03:54:30.825Z,6.95
2022-08-22T03:58:07.114Z,9.23
2022-08-22T04:01:47.132Z,7.32
2022-08-22T04:05:34.868Z,8.18
2022-08-22T04:09:25.629Z,8.45
2022-08-22T04:12:56.957Z,8.02
2022-08-22T04:16:29.886Z,6.35
2022-08-22T04:24:39.357Z,8.13
2022-08-22T04:27:40.911Z,8.05
2022-08-22T04:30:41.941Z,7.75
2022-08-22T04:33:40.376Z,6.35
2022-08-22T04:36:41.487Z,6.93
2022-08-22T04:39:39.851Z,7.70
2022-08-22T04:42:37.442Z,6.07
2022-08-22T04:45:36.205Z,6.63
2022-08-22T04:48:34.677Z,8.30
2022-08-22T04:51:35.255Z,8.25
2022-08-22T04:54:52.963Z,7.40
2022-08-22T04:57:57.323Z,6.82
2022-08-22T05:01:01.078Z,6.70
2022-08-22T05:04:00.963Z,6.82
2022-08-22T05:06:57.601Z,5.95
2022-08-22T05:09:52.755Z,6.53
2022-08-22T05:12:50.407Z,8.68
2022-08-22T05:15:45.401Z,6.32
2022-08-22T05:18:46.735Z,7.57
2022-08-22T05:21:41.707Z,7.30
2022-08-22T05:24:38.532Z,6.88
2022-08-22T05:27:34.596Z,9.52
2022-08-22T05:30:31.309Z,7.70
2022-08-22T05:33:33.828Z,11.70
2022-08-22T05:36:29.860Z,8.63
2022-08-22T05:39:25.407Z,8.38
2022-08-22T05:42:27.085Z,7.28
2022-08-22T05:45:20.227Z,6.88
2022-08-22T05:48:18.158Z,11.82
2022-08-22T05:51:18.920Z,13.50
2022-08-22T05:54:20.084Z,11.73
2022-08-22T05:57:26.381Z,15.55
2022-08-22T06:00:23.564Z,12.25
2022-08-22T06:03:26.784Z,15.95
2022-08-22T06:09:34.868Z,12.82
2022-08-22T06:12:36.056Z,11.63
2022-08-22T06:15:37.923Z,11.00
2022-08-22T06:18:32.203Z,13.65
2022-08-22T06:21:38.527Z,11.45
2022-08-22T06:24:34.102Z,10.52
2022-08-22T06:27:31.382Z,10.10
2022-08-22T06:30:22.608Z,8.02
2022-08-22T06:33:19.362Z,13.32
2022-08-22T06:36:34.685Z,11.25
2022-08-22T06:39:31.114Z,8.63
2022-08-22T06:42:26.165Z,10.05
2022-08-22T06:45:23.742Z,12.48
2022-08-22T06:48:21.299Z,12.20
2022-08-22T06:51:13.211Z,9.52
2022-08-22T06:54:08.693Z,12.27
2022-08-22T06:57:00.361Z,11.82
2022-08-22T06:59:50.243Z,9.65
2022-08-22T07:02:55.936Z,11.45
2022-08-22T07:05:46.036Z,14.10
2022-08-22T07:08:39.200Z,8.30
2022-08-22T07:11:32.560Z,8.60
2022-08-22T07:14:39.720Z,10.77
2022-08-22T07:17:35.894Z,13.65
2022-08-22T07:20:45.588Z,10.23
2022-08-22T07:23:44.885Z,12.98
2022-08-22T07:26:50.786Z,8.95
2022-08-22T07:29:55.981Z,15.70
2022-08-22T07:32:56.510Z,10.90
2022-08-22T07:36:01.540Z,9.50
2022-08-22T07:39:13.284Z,10.27
2022-08-22T07:42:15.635Z,11.10
2022-08-22T07:45:11.854Z,9.90
2022-08-22T07:48:25.793Z,10.82
2022-08-22T07:51:19.942Z,9.48
2022-08-22T07:54:14.474Z,9.95
2022-08-22T07:57:09.553Z,6.78
2022-08-22T08:00:20.630Z,5.95
2022-08-22T08:03:13.865Z,6.90
2022-08-22T08:06:04.830Z,6.20
2022-08-22T08:08:56.919Z,5.10
2022-08-22T08:11:48.380Z,7.00
2022-08-22T08:14:41.689Z,5.65
2022-08-22T08:17:36.369Z,5.75
2022-08-22T08:20:30.338Z,5.85
2022-08-22T08:23:23.636Z,6.95
2022-08-22T08:26:18.208Z,5.85
2022-08-22T08:29:08.340Z,4.05
2022-08-22T08:32:01.197Z,4.43
2022-08-22T08:34:53.443Z,6.53
2022-08-22T08:37:49.664Z,7.05
2022-08-22T08:41:22.124Z,9.20
2022-08-22T08:44:39.552Z,5.18
2022-08-22T08:47:49.717Z,5.65
2022-08-22T08:51:18.331Z,5.72
2022-08-22T08:54:31.421Z,5.90
2022-08-22T08:57:41.494Z,4.07
2022-08-22T09:04:34.784Z,4.60
2022-08-22T09:08:02.029Z,4.63
2022-08-22T09:14:59.730Z,4.78
2022-08-22T09:18:29.214Z,4.72
2022-08-22T09:22:00.310Z,7.43
2022-08-22T09:25:23.375Z,3.95
2022-08-22T09:28:19.535Z,4.07
2022-08-22T09:31:44.941Z,4.13
2022-08-22T09:40:16.672Z,5.32
2022-08-22T09:41:34.823Z,3.10
2022-08-22T09:44:40.117Z,6.53
2022-08-22T09:47:39.258Z,5.05
2022-08-22T09:50:46.495Z,3.30
2022-08-22T09:54:31.003Z,4.70
2022-08-22T09:57:38.934Z,5.57
2022-08-22T10:00:44.032Z,5.57
2022-08-22T10:04:40.098Z,7.18
2022-08-22T10:07:55.217Z,3.97
2022-08-22T10:11:09.103Z,3.92
2022-08-22T10:14:09.406Z,4.35
2022-08-22T10:17:12.886Z,6.28
2022-08-22T10:20:16.412Z,4.28
2022-08-22T10:23:21.095Z,4.70
2022-08-22T10:26:37.950Z,4.07
2022-08-22T10:29:56.282Z,2.55
2022-08-22T10:32:56.427Z,3.53
2022-08-22T10:36:07.883Z,5.82
2022-08-22T10:39:10.947Z,4.35
2022-08-22T10:42:23.293Z,3.67
2022-08-22T10:45:37.131Z,3.10
2022-08-22T10:48:44.505Z,4.68
2022-08-22T10:51:46.610Z,2.85
2022-08-22T10:54:48.282Z,5.35
2022-08-22T10:58:02.446Z,4.65
2022-08-22T11:01:00.096Z,3.92
2022-08-22T11:04:05.876Z,2.67
2022-08-22T11:07:15.393Z,6.72
2022-08-22T11:10:16.350Z,3.47
2022-08-22T11:13:20.623Z,4.37
2022-08-22T11:16:30.900Z,5.80
2022-08-22T11:19:58.698Z,2.92
2022-08-22T11:26:33.463Z,4.90
2022-08-22T11:29:43.478Z,4.57
2022-08-22T11:32:44.380Z,8.38
2022-08-22T11:35:46.884Z,2.88
2022-08-22T11:38:47.820Z,7.68
2022-08-22T11:41:45.559Z,5.47
2022-08-22T11:44:52.803Z,4.43
2022-08-22T11:47:57.317Z,3.60
2022-08-22T11:51:04.485Z,3.42
2022-08-22T11:54:14.598Z,3.65
2022-08-22T11:57:10.657Z,5.63
2022-08-22T12:00:29.557Z,3.22
2022-08-22T12:03:42.548Z,5.18
2022-08-22T12:07:01.113Z,1.80
2022-08-22T12:09:57.806Z,5.55
2022-08-22T12:13:01.271Z,2.45
2022-08-22T12:16:07.398Z,4.70
2022-08-22T12:20:20.651Z,3.30
2022-08-22T12:23:51.270Z,3.55
2022-08-22T12:26:59.883Z,4.45
2022-08-22T12:30:14.801Z,4.10
2022-08-22T12:33:45.898Z,8.25
2022-08-22T12:37:05.599Z,4.63
2022-08-22T12:40:47.632Z,4.45
2022-08-22T12:43:58.861Z,6.63
2022-08-22T12:47:12.876Z,6.90
2022-08-22T12:50:20.640Z,4.38
2022-08-22T12:53:45.013Z,3.72
2022-08-22T12:56:50.493Z,2.90
2022-08-22T12:59:46.162Z,3.90
2022-08-22T13:02:41.662Z,3.78
2022-08-22T13:05:34.317Z,3.38
2022-08-22T13:08:38.653Z,3.35
2022-08-22T13:11:38.508Z,3.10
2022-08-22T13:14:32.665Z,4.15
2022-08-22T13:17:25.372Z,5.72
2022-08-22T13:20:26.705Z,2.38
2022-08-22T13:23:24.029Z,3.78
2022-08-22T13:26:26.923Z,2.45
2022-08-22T13:29:39.154Z,5.30
2022-08-22T13:32:40.566Z,2.17
2022-08-22T13:35:44.808Z,2.03
2022-08-22T13:38:51.793Z,4.10
2022-08-22T13:41:55.501Z,2.80
2022-08-22T13:44:51.196Z,4.32
2022-08-22T13:47:53.492Z,5.00
2022-08-22T13:51:08.599Z,3.47
2022-08-22T13:54:21.283Z,3.67
2022-08-22T13:57:23.815Z,3.03
2022-08-22T14:01:10.515Z,5.03
2022-08-22T14:04:28.395Z,3.00
2022-08-22T14:07:32.532Z,3.60
2022-08-22T14:10:29.723Z,3.42
2022-08-22T14:13:43.692Z,3.38
2022-08-22T14:16:38.997Z,3.08
2022-08-22T14:19:53.123Z,4.60
2022-08-22T14:23:00.981Z,4.22
2022-08-22T14:25:54.206Z,1.83
2022-08-22T14:28:45.917Z,3.40
2022-08-22T14:31:36.485Z,2.72
2022-08-22T14:34:29.737Z,2.50
2022-08-22T14:37:30.338Z,3.15
2022-08-22T14:40:28.801Z,9.18
2022-08-22T14:43:26.926Z,3.90
2022-08-22T14:46:27.782Z,5.32
2022-08-22T14:49:38.215Z,3.83
2022-08-22T14:52:38.551Z,7.47
2022-08-22T14:55:30.623Z,5.25
2022-08-22T14:58:26.535Z,3.63
2022-08-22T15:01:24.254Z,3.90
2022-08-22T15:04:24.223Z,4.35
2022-08-22T15:07:27.037Z,6.13
2022-08-22T15:10:24.933Z,5.75
2022-08-22T15:13:22.243Z,4.05
2022-08-22T15:16:22.151Z,3.83
2022-08-22T15:19:29.670Z,4.97
2022-08-22T15:22:27.729Z,4.50
2022-08-22T15:25:23.085Z,4.93
2022-08-22T15:28:21.304Z,4.40
2022-08-22T15:31:19.896Z,4.72
2022-08-22T15:34:18.186Z,4.10
2022-08-22T15:37:35.895Z,3.60
2022-08-22T15:40:44.184Z,5.38
2022-08-22T15:43:45.534Z,2.55
2022-08-22T15:46:44.317Z,4.05
2022-08-22T15:49:39.915Z,4.57
2022-08-22T15:52:33.220Z,3.75
2022-08-22T15:55:29.459Z,4.15
2022-08-22T15:58:25.019Z,2.70
2022-08-22T16:01:19.231Z,4.75
2022-08-22T16:04:16.311Z,5.30
2022-08-22T16:07:27.183Z,2.83
2022-08-22T16:10:36.071Z,2.97
2022-08-22T16:13:44.931Z,2.90
2022-08-22T16:17:04.040Z,3.10
2022-08-22T16:20:55.732Z,1.85
2022-08-22T16:24:29.254Z,2.88
2022-08-22T16:27:25.910Z,2.25
2022-08-22T16:30:17.173Z,4.20
2022-08-22T16:33:18.596Z,2.60
2022-08-22T16:36:43.308Z,4.13
2022-08-22T16:39:39.542Z,3.75
2022-08-22T16:42:39.273Z,2.97
2022-08-22T16:45:37.702Z,6.53
2022-08-22T16:48:36.297Z,2.13
2022-08-22T16:51:26.845Z,3.22
2022-08-22T16:54:48.612Z,3.10
2022-08-22T16:58:06.144Z,5.38
2022-08-22T17:01:11.784Z,2.28
2022-08-22T17:04:15.043Z,3.97
2022-08-22T17:07:22.813Z,4.03
2022-08-22T17:10:42.802Z,4.93
2022-08-22T17:13:55.902Z,2.78
2022-08-22T17:17:18.173Z,2.95
2022-08-22T17:20:35.468Z,4.20
2022-08-22T17:23:43.059Z,2.00
2022-08-22T17:26:50.841Z,2.42
2022-08-22T17:30:02.209Z,5.82
2022-08-22T17:33:16.649Z,3.55
2022-08-22T17:36:26.662Z,3.10
2022-08-22T17:39:39.498Z,3.80
2022-08-22T17:42:54.869Z,4.22
2022-08-22T17:46:18.773Z,3.47
2022-08-22T17:49:24.292Z,3.83
2022-08-22T17:52:25.002Z,2.53
2022-08-22T17:55:19.860Z,3.72
2022-08-22T17:58:37.957Z,3.47
2022-08-22T18:01:51.137Z,2.78
2022-08-22T18:04:47.791Z,3.65
2022-08-22T18:08:02.711Z,3.58
2022-08-22T18:11:06.445Z,4.95
2022-08-22T18:14:07.410Z,3.67
2022-08-22T18:17:00.873Z,2.90
2022-08-22T18:20:05.547Z,2.95
2022-08-22T18:23:01.875Z,2.80
2022-08-22T18:26:07.239Z,3.40
2022-08-22T18:29:04.670Z,3.00
2022-08-22T18:32:11.079Z,2.78
2022-08-22T18:35:11.104Z,3.00
2022-08-22T18:38:19.234Z,2.28
2022-08-22T18:41:21.939Z,3.92
2022-08-22T18:44:20.966Z,5.13
2022-08-22T18:47:22.249Z,6.80
2022-08-22T18:50:31.520Z,6.63
2022-08-22T18:53:39.193Z,4.43
2022-08-22T18:56:54.084Z,3.95
2022-08-22T19:00:05.921Z,4.82
2022-08-22T19:03:27.568Z,4.07
2022-08-22T19:07:12.097Z,6.13
2022-08-22T19:10:34.284Z,3.47
2022-08-22T19:13:53.296Z,4.95
2022-08-22T19:17:21.214Z,6.05
2022-08-22T19:20:44.502Z,4.00
2022-08-22T19:23:50.442Z,3.72
2022-08-22T19:26:51.428Z,3.90
2022-08-22T19:29:59.516Z,3.55
2022-08-22T19:33:06.479Z,3.83
2022-08-22T19:36:12.905Z,3.83
2022-08-22T19:39:09.126Z,3.33
2022-08-22T19:41:59.547Z,4.05
2022-08-22T19:45:00.743Z,4.43
2022-08-22T19:48:13.086Z,4.88
2022-08-22T19:51:26.007Z,10.55
2022-08-22T19:54:24.516Z,5.28
2022-08-22T19:57:29.915Z,4.32
2022-08-22T20:00:29.899Z,4.95
2022-08-22T20:03:42.069Z,3.72
2022-08-22T20:06:44.595Z,3.08
2022-08-22T20:09:46.455Z,3.47
2022-08-22T20:12:50.642Z,3.75
2022-08-22T20:16:10.294Z,3.65
2022-08-22T20:19:22.616Z,4.18
2022-08-22T20:22:20.181Z,4.05
2022-08-22T20:25:42.591Z,3.20
2022-08-22T20:28:46.019Z,5.75
2022-08-22T20:31:38.130Z,11.60
2022-08-22T20:34:34.668Z,5.85
2022-08-22T20:37:56.218Z,5.90
2022-08-22T20:40:54.549Z,9.35
2022-08-22T20:43:52.069Z,3.80
2022-08-22T20:46:55.099Z,6.78
2022-08-22T20:49:50.489Z,4.65
2022-08-22T20:52:54.381Z,4.63
2022-08-22T20:55:54.987Z,5.35
2022-08-22T20:58:48.812Z,4.55
2022-08-22T21:01:38.891Z,5.53
2022-08-22T21:04:42.534Z,4.47
2022-08-22T21:07:37.368Z,4.50
2022-08-22T21:10:48.821Z,5.50
2022-08-22T21:13:38.791Z,3.70
2022-08-22T21:16:32.995Z,4.63
2022-08-22T21:19:28.667Z,4.15
2022-08-22T21:22:26.995Z,5.03
2022-08-22T21:25:17.827Z,5.78
2022-08-22T21:28:07.093Z,6.97
2022-08-22T21:30:56.815Z,5.35
2022-08-22T21:33:51.935Z,7.03
2022-08-22T21:36:41.717Z,8.73
2022-08-22T21:39:36.936Z,7.80
2022-08-22T21:42:34.161Z,9.27
2022-08-22T21:45:31.641Z,10.60
2022-08-22T21:48:37.669Z,9.73
2022-08-22T21:51:42.040Z,10.27
2022-08-22T21:54:40.770Z,9.35
2022-08-22T21:57:37.593Z,9.40
2022-08-22T22:00:52.484Z,9.02
2022-08-22T22:03:42.262Z,8.45
2022-08-22T22:06:31.411Z,8.35
2022-08-22T22:09:20.667Z,6.97
2022-08-22T22:12:12.110Z,8.63
2022-08-22T22:15:03.903Z,8.25
2022-08-22T22:17:54.411Z,8.00
2022-08-22T22:20:45.522Z,7.53
2022-08-22T22:23:34.637Z,7.93
2022-08-22T22:26:23.924Z,6.95
2022-08-22T22:29:13.182Z,8.13
2022-08-22T22:32:04.489Z,7.57
2022-08-22T22:34:54.059Z,6.72
2022-08-22T22:37:44.095Z,6.40
2022-08-22T22:40:33.316Z,7.15
2022-08-22T22:43:22.620Z,7.10
2022-08-22T22:46:12.323Z,6.05
2022-08-22T22:49:02.867Z,5.03
2022-08-22T22:51:52.236Z,6.20
2022-08-22T22:54:41.394Z,7.38
2022-08-22T22:57:31.758Z,6.13
2022-08-22T23:00:36.173Z,5.55
2022-08-22T23:03:26.724Z,5.43
2022-08-22T23:06:21.998Z,8.10
2022-08-22T23:09:11.172Z,6.32
2022-08-22T23:12:05.355Z,4.60
2022-08-22T23:14:55.165Z,8.15
2022-08-22T23:17:44.812Z,7.05
2022-08-22T23:20:34.076Z,7.15
2022-08-22T23:23:24.546Z,6.80
2022-08-22T23:26:15.062Z,6.25
2022-08-22T23:29:05.542Z,5.90
2022-08-22T23:31:57.400Z,5.65
2022-08-22T23:34:48.902Z,5.38
2022-08-22T23:37:38.390Z,6.35
2022-08-22T23:40:28.922Z,8.50
2022-08-22T23:43:18.342Z,6.53
2022-08-22T23:46:07.868Z,7.97
2022-08-22T23:48:57.061Z,8.23
2022-08-22T23:51:47.852Z,6.70
2022-08-22T23:54:37.393Z,6.53
2022-08-22T23:57:29.377Z,7.20
